Audubon, Illinois
Current Conditions -  °F | °C
As of 2:35 AM on Friday 31 Oct 2014 (Local Time) from KTAZ Reporting Station
Haze Haze  
Wind Chill: 39°   Ceiling: Unl
Heat Index: 43°   Visibility: 5mi
Dew Point: 41°   Wind: 6mph
Humidity: 93%   Direction: 330°NNW
Pressure: 30.08"   Gusts: NA
Location:  39.3183°N, 89.2952°W
Report Text: KTAZ 310735Z AUTO 33005KT 5SM BR SCT075 06/05 A3008 RMK AO2
Loading
Personal Weather Stations






























Interactive Weather Map
Tropical Storm Tracking
New forecast layout! Learn more

10-Day Weather Forecast

Advertisements
Track Severe Weather on mobile